Kaishinmaru — JI3680 — position and weather

sailwx.info

Track history (hours):
 
Tides and Currents Weather Stations Pressure Air Temp Water Temp Dewpoint Dewpoint Depression Visibility Wind Speed Wind Dir Waves Ship Positions

Kaishinmaru

Last reported at 2018-Jun-06 07:23 UTC. Time now 2018-Jun-18 03:47 UTC.
Position N 33°58' E 135°02'.
Warning: this ship's position is 11 days out of date.

Length 27 m.

Type: Tug. MMSI: 431301512.

Date/timePositionNaut miles runAvg speedWind from/ knotsBaromVisibWave heightAir tempDewpointWater temp
2018-Jun-06 07:23N 33°58' E 135°02'1411.0
2018-Jun-06 06:09N 34°12' E 135°03'210.8
2018-Jun-06 05:56N 34°14' E 135°03'510.6
2018-Jun-06 05:30N 34°19' E 135°04'610.9
2018-Jun-06 04:58N 34°24' E 135°08'1711.3
2018-Jun-06 03:25N 34°37' E 135°22'6 1.1
2018-Jun-05 22:20N 34°39' E 135°28'0 0.0
2018-Jun-05 21:56N 34°39' E 135°28'0 0.0
2018-Jun-05 21:26N 34°39' E 135°28'0 0.0
2018-Jun-05 20:50N 34°39' E 135°28'0 0.0
2018-Jun-05 20:14N 34°39' E 135°28'0 0.0
2018-Jun-05 16:26N 34°39' E 135°28'0 0.0
2018-Jun-05 15:56N 34°39' E 135°28'0 0.0
2018-Jun-05 14:50N 34°39' E 135°28'0 0.0
2018-Jun-05 12:32N 34°39' E 135°28'0 0.0
2018-Jun-04 22:32N 34°39' E 135°28'0 0.0
2018-Jun-04 21:14N 34°39' E 135°28'0 0.0
2018-Jun-04 02:14N 34°39' E 135°28'0 0.0
2018-Jun-04 01:50N 34°39' E 135°28'0 0.0
2018-Jun-04 01:26N 34°39' E 135°28'0 0.3
2018-Jun-04 00:44N 34°39' E 135°28'2 9.7
2018-Jun-04 00:30N 34°39' E 135°25'510.7
2018-Jun-04 00:00N 34°41' E 135°19'2 3.4
2018-Jun-03 23:27N 34°43' E 135°18'0 0.7
2018-Jun-03 23:00N 34°43' E 135°17'2 3.0
2018-Jun-03 22:30N 34°41' E 135°19'0 0.9
2018-Jun-03 22:00N 34°41' E 135°19'0 0.6
2018-Jun-03 21:25N 34°41' E 135°19'0 0.0
2018-Jun-03 20:50N 34°41' E 135°19'3 8.9
2018-Jun-03 20:30N 34°39' E 135°17'510.7
2018-Jun-03 20:00N 34°37' E 135°11'611.3
2018-Jun-03 19:29N 34°35' E 135°05'  
2018-May-29 08:53N 34°28' E 134°30'3 7.2
2018-May-29 08:30N 34°29' E 134°33'4 7.1
2018-May-29 07:56N 34°31' E 134°38'3 7.1
2018-May-29 07:30N 34°32' E 134°41'19 4.7
2018-May-29 03:27N 34°36' E 135°04'3 5.5
2018-May-29 02:57N 34°36' E 135°07'3 7.3
2018-May-29 02:30N 34°37' E 135°11'4 7.2
2018-May-29 01:58N 34°37' E 135°16'3 7.2
2018-May-29 01:30N 34°38' E 135°19'3 5.7
2018-May-29 01:00N 34°41' E 135°21'0 0.4
2018-May-29 00:20N 34°41' E 135°21'0 0.3
2018-May-29 00:00N 34°41' E 135°21'0 0.1
2018-May-28 23:26N 34°41' E 135°21'0 0.0
2018-May-28 22:54N 34°41' E 135°21'1 1.2
2018-May-28 22:28N 34°40' E 135°22'5 0.1
2018-May-27 07:45N 34°39' E 135°28'  
Track history (hours):
 
Tides and Currents Weather Stations Pressure Air Temp Water Temp Dewpoint Dewpoint Depression Visibility Wind Speed Wind Dir Waves Ship Positions

Kaishinmaru

Last reported at 2018-Jun-06 07:23 UTC. Time now 2018-Jun-18 03:47 UTC.
Position N 33°58' E 135°02'.
Warning: this ship's position is 11 days out of date.

Length 27 m.

Type: Tug. MMSI: 431301512.

Date/timePositionNaut miles runAvg speedWind from/ knotsBaromVisibWave heightAir tempDewpointWater temp
2018-Jun-06 07:23N 33°58' E 135°02'1411.0
2018-Jun-06 06:09N 34°12' E 135°03'210.8
2018-Jun-06 05:56N 34°14' E 135°03'510.6
2018-Jun-06 05:30N 34°19' E 135°04'610.9
2018-Jun-06 04:58N 34°24' E 135°08'1711.3
2018-Jun-06 03:25N 34°37' E 135°22'6 1.1
2018-Jun-05 22:20N 34°39' E 135°28'0 0.0
2018-Jun-05 21:56N 34°39' E 135°28'0 0.0
2018-Jun-05 21:26N 34°39' E 135°28'0 0.0
2018-Jun-05 20:50N 34°39' E 135°28'0 0.0
2018-Jun-05 20:14N 34°39' E 135°28'0 0.0
2018-Jun-05 16:26N 34°39' E 135°28'0 0.0
2018-Jun-05 15:56N 34°39' E 135°28'0 0.0
2018-Jun-05 14:50N 34°39' E 135°28'0 0.0
2018-Jun-05 12:32N 34°39' E 135°28'0 0.0
2018-Jun-04 22:32N 34°39' E 135°28'0 0.0
2018-Jun-04 21:14N 34°39' E 135°28'0 0.0
2018-Jun-04 02:14N 34°39' E 135°28'0 0.0
2018-Jun-04 01:50N 34°39' E 135°28'0 0.0
2018-Jun-04 01:26N 34°39' E 135°28'0 0.3
2018-Jun-04 00:44N 34°39' E 135°28'2 9.7
2018-Jun-04 00:30N 34°39' E 135°25'510.7
2018-Jun-04 00:00N 34°41' E 135°19'2 3.4
2018-Jun-03 23:27N 34°43' E 135°18'0 0.7
2018-Jun-03 23:00N 34°43' E 135°17'2 3.0
2018-Jun-03 22:30N 34°41' E 135°19'0 0.9
2018-Jun-03 22:00N 34°41' E 135°19'0 0.6
2018-Jun-03 21:25N 34°41' E 135°19'0 0.0
2018-Jun-03 20:50N 34°41' E 135°19'3 8.9
2018-Jun-03 20:30N 34°39' E 135°17'510.7
2018-Jun-03 20:00N 34°37' E 135°11'611.3
2018-Jun-03 19:29N 34°35' E 135°05'  
2018-May-29 08:53N 34°28' E 134°30'3 7.2
2018-May-29 08:30N 34°29' E 134°33'4 7.1
2018-May-29 07:56N 34°31' E 134°38'3 7.1
2018-May-29 07:30N 34°32' E 134°41'19 4.7
2018-May-29 03:27N 34°36' E 135°04'3 5.5
2018-May-29 02:57N 34°36' E 135°07'3 7.3
2018-May-29 02:30N 34°37' E 135°11'4 7.2
2018-May-29 01:58N 34°37' E 135°16'3 7.2
2018-May-29 01:30N 34°38' E 135°19'3 5.7
2018-May-29 01:00N 34°41' E 135°21'0 0.4
2018-May-29 00:20N 34°41' E 135°21'0 0.3
2018-May-29 00:00N 34°41' E 135°21'0 0.1
2018-May-28 23:26N 34°41' E 135°21'0 0.0
2018-May-28 22:54N 34°41' E 135°21'1 1.2
2018-May-28 22:28N 34°40' E 135°22'5 0.1
2018-May-27 07:45N 34°39' E 135°28'  

Dump ship's entire track history